Time;durP1;ratioP1;P1;durP2;ratioP2;P2;SDS_P1;SDS_P2;PMS_P1;PMS_P2;Temp;Humidity;BMP_temperature;BMP_pressure;BME280_temperature;BME280_humidity;BME280_pressure;Samples;Min_cycle;Max_cycle;Signal;HPM_P1;HPM_P2
2022/10/14 00:01:14;;;;;;;26.10;13.00;;;10.90;99.90;;;;;;5094002;28;20204;-69
2022/10/14 00:03:41;;;;;;;25.67;12.57;;;10.90;99.90;;;;;;5095585;28;20214;-69
2022/10/14 00:06:11;;;;;;;22.27;11.03;;;10.90;99.90;;;;;;5095565;28;20204;-69
2022/10/14 00:08:37;;;;;;;21.47;11.03;;;10.90;99.90;;;;;;5092285;28;20207;-70
2022/10/14 00:11:06;;;;;;;26.10;12.43;;;10.90;99.90;;;;;;5095324;28;20250;-69
2022/10/14 00:13:33;;;;;;;21.97;11.20;;;10.90;99.90;;;;;;5095548;28;20203;-70
2022/10/14 00:16:02;;;;;;;29.00;14.03;;;10.90;99.90;;;;;;5094901;28;20233;-69
2022/10/14 00:18:29;;;;;;;26.27;13.57;;;10.90;99.90;;;;;;5086859;28;20204;-70
2022/10/14 00:20:56;;;;;;;29.47;14.43;;;10.90;99.90;;;;;;5074833;28;20209;-69
2022/10/14 00:23:23;;;;;;;24.57;13.90;;;10.90;99.90;;;;;;5075186;28;20651;-71
2022/10/14 00:25:50;;;;;;;24.13;12.97;;;10.80;99.90;;;;;;5074934;28;20651;-70
2022/10/14 00:28:17;;;;;;;29.03;12.47;;;10.80;99.90;;;;;;5074836;28;20224;-68
2022/10/14 00:30:53;;;;;;;26.37;12.67;;;10.80;99.90;;;;;;5074422;28;20212;-70
2022/10/14 00:33:22;;;;;;;22.13;12.47;;;10.80;99.90;;;;;;5074703;28;20589;-69
2022/10/14 00:35:57;;;;;;;24.40;12.00;;;10.70;99.90;;;;;;5079945;28;20220;-69
2022/10/14 00:38:24;;;;;;;24.57;11.63;;;10.70;99.90;;;;;;5094898;28;20199;-69
2022/10/14 00:40:51;;;;;;;24.40;11.17;;;10.70;99.90;;;;;;5094629;28;20208;-70
2022/10/14 00:43:18;;;;;;;22.17;10.90;;;10.70;99.90;;;;;;5094857;28;20226;-69
2022/10/14 00:45:45;;;;;;;21.50;10.70;;;10.70;99.90;;;;;;5092786;28;20196;-69
2022/10/14 00:48:13;;;;;;;17.97;10.23;;;10.70;99.90;;;;;;5093545;28;20294;-69
2022/10/14 00:50:43;;;;;;;22.83;11.43;;;10.70;99.90;;;;;;5095068;28;20674;-69
2022/10/14 00:53:13;;;;;;;22.43;10.93;;;10.70;99.90;;;;;;5094409;28;20191;-69
2022/10/14 00:55:42;;;;;;;23.37;11.03;;;10.70;99.90;;;;;;5092980;28;20280;-70
2022/10/14 00:58:09;;;;;;;23.40;12.53;;;10.70;99.90;;;;;;5094398;28;20200;-70
2022/10/14 01:00:37;;;;;;;24.97;11.70;;;10.70;99.90;;;;;;5094419;28;20207;-68
2022/10/14 01:03:09;;;;;;;25.63;12.13;;;10.60;99.90;;;;;;5094600;28;20829;-69
2022/10/14 01:05:46;;;;;;;22.80;12.57;;;10.60;99.90;;;;;;5090794;28;20204;-69
2022/10/14 01:08:22;;;;;;;22.00;11.23;;;10.60;99.90;;;;;;5080866;28;20669;-70
2022/10/14 01:10:55;;;;;;;26.40;13.50;;;10.60;99.90;;;;;;5085094;28;20207;-69
2022/10/14 01:13:27;;;;;;;24.33;11.97;;;10.60;99.90;;;;;;5094492;28;20195;-69
2022/10/14 01:16:04;;;;;;;24.33;12.80;;;10.60;99.90;;;;;;5093766;28;20208;-68
2022/10/14 01:18:42;;;;;;;23.83;12.47;;;10.50;99.90;;;;;;5093894;28;20192;-69
2022/10/14 01:21:19;;;;;;;21.27;12.37;;;10.50;99.90;;;;;;5092838;28;20507;-70
2022/10/14 01:24:27;;;;;;;23.10;12.50;;;10.50;99.90;;;;;;5073513;28;20777;-69
2022/10/14 01:27:10;;;;;;;25.07;12.17;;;10.50;99.90;;;;;;5073841;28;20283;-69
2022/10/14 01:30:05;;;;;;;25.33;12.17;;;10.40;99.90;;;;;;5073343;28;20204;-70
2022/10/14 01:32:38;;;;;;;23.47;12.53;;;10.40;99.90;;;;;;5078785;28;20695;-71
2022/10/14 01:35:12;;;;;;;24.13;12.43;;;10.40;99.90;;;;;;5094039;28;20195;-70
2022/10/14 01:37:46;;;;;;;20.70;11.67;;;10.40;99.90;;;;;;5093113;28;20224;-70
2022/10/14 01:40:20;;;;;;;21.33;11.87;;;10.40;99.90;;;;;;5091579;28;20203;-69
2022/10/14 01:42:49;;;;;;;19.87;11.33;;;10.40;99.90;;;;;;5093473;28;20637;-71
2022/10/14 01:45:20;;;;;;;22.27;11.23;;;10.30;99.90;;;;;;5093656;28;20253;-69
2022/10/14 01:47:50;;;;;;;21.00;10.67;;;10.30;99.90;;;;;;5093274;28;20551;-68
2022/10/14 01:50:19;;;;;;;16.73;10.23;;;10.30;99.90;;;;;;5092385;28;20206;-69
2022/10/14 01:52:50;;;;;;;18.37;10.27;;;10.30;99.90;;;;;;5093122;28;20204;-68
2022/10/14 01:55:21;;;;;;;19.10;10.93;;;10.20;99.90;;;;;;5093418;28;20207;-68
2022/10/14 01:57:50;;;;;;;20.03;10.90;;;10.10;99.90;;;;;;5093133;28;20277;-70
2022/10/14 02:00:19;;;;;;;20.40;11.20;;;10.10;99.90;;;;;;5091081;28;20219;-69
2022/10/14 02:02:46;;;;;;;19.40;10.63;;;10.00;99.90;;;;;;5093021;28;20204;-69
2022/10/14 02:05:18;;;;;;;20.63;11.37;;;10.00;99.90;;;;;;5093192;28;20214;-68
2022/10/14 02:07:49;;;;;;;20.83;11.37;;;10.00;99.90;;;;;;5092820;28;20192;-70
2022/10/14 02:10:26;;;;;;;21.50;12.57;;;10.00;99.90;;;;;;5091952;28;20208;-70
2022/10/14 02:13:05;;;;;;;22.93;11.00;;;10.00;99.90;;;;;;5093180;28;20661;-67
2022/10/14 02:15:44;;;;;;;23.40;12.03;;;10.00;99.90;;;;;;5092474;28;20212;-69
2022/10/14 02:18:17;;;;;;;22.17;11.80;;;10.00;99.90;;;;;;5093046;28;20195;-68
2022/10/14 02:20:54;;;;;;;18.93;11.17;;;9.90;99.90;;;;;;5091384;28;20196;-68
2022/10/14 02:23:26;;;;;;;18.13;10.60;;;9.90;99.90;;;;;;5091333;28;20214;-68
2022/10/14 02:25:54;;;;;;;17.47;11.30;;;9.90;99.90;;;;;;5093016;28;20212;-68
2022/10/14 02:28:26;;;;;;;19.50;11.80;;;9.90;99.90;;;;;;5092472;28;20207;-68
2022/10/14 02:30:58;;;;;;;23.20;11.90;;;9.90;99.90;;;;;;5091378;28;20210;-68
2022/10/14 02:33:32;;;;;;;23.03;12.67;;;9.90;99.90;;;;;;5092547;28;20192;-70
2022/10/14 02:36:01;;;;;;;30.17;13.07;;;9.80;99.90;;;;;;5092072;28;20242;-67
2022/10/14 02:38:30;;;;;;;22.37;12.27;;;9.80;99.90;;;;;;5092598;28;20204;-67
2022/10/14 02:40:59;;;;;;;26.20;13.33;;;9.80;99.90;;;;;;5091584;28;20196;-68
2022/10/14 02:43:26;;;;;;;22.20;12.43;;;9.80;99.90;;;;;;5092861;28;20208;-68
2022/10/14 02:45:58;;;;;;;23.60;13.53;;;9.80;99.90;;;;;;5092607;28;20200;-67
2022/10/14 02:48:24;;;;;;;23.77;13.47;;;9.80;99.90;;;;;;5092982;28;20188;-69
2022/10/14 02:50:51;;;;;;;24.53;13.67;;;9.70;99.90;;;;;;5085384;28;20197;-67
2022/10/14 02:53:18;;;;;;;28.47;15.33;;;9.70;99.90;;;;;;5072020;28;20204;-67
2022/10/14 02:55:45;;;;;;;24.53;14.60;;;9.70;99.90;;;;;;5072448;28;20587;-69
2022/10/14 02:58:11;;;;;;;28.60;14.73;;;9.70;99.90;;;;;;5072261;28;20662;-67
2022/10/14 03:00:38;;;;;;;25.63;14.60;;;9.60;99.90;;;;;;5074231;28;20205;-68
2022/10/14 03:03:06;;;;;;;28.50;15.47;;;9.60;99.90;;;;;;5092406;28;20204;-68
2022/10/14 03:05:33;;;;;;;27.80;14.27;;;9.60;99.90;;;;;;5091771;28;20611;-67
2022/10/14 03:08:00;;;;;;;27.70;14.70;;;9.60;99.90;;;;;;5088513;28;20571;-67
2022/10/14 03:10:27;;;;;;;24.37;13.90;;;9.50;99.90;;;;;;5091212;28;20215;-68
2022/10/14 03:12:53;;;;;;;25.77;15.33;;;9.50;99.90;;;;;;5092249;28;20210;-68
2022/10/14 03:15:20;;;;;;;26.47;16.17;;;9.50;99.90;;;;;;5091955;28;20200;-68
2022/10/14 03:17:47;;;;;;;29.67;15.47;;;9.50;99.90;;;;;;5090548;28;20231;-69
2022/10/14 03:20:15;;;;;;;29.60;15.00;;;9.50;99.90;;;;;;5091150;28;20290;-68
2022/10/14 03:22:42;;;;;;;33.17;17.07;;;9.50;99.90;;;;;;5091748;28;20560;-69
2022/10/14 03:25:10;;;;;;;29.13;15.50;;;9.50;99.90;;;;;;5091413;28;20693;-68
2022/10/14 03:27:37;;;;;;;26.57;15.33;;;9.50;99.90;;;;;;5088869;28;20204;-67
2022/10/14 03:30:04;;;;;;;28.23;14.83;;;9.50;99.90;;;;;;5087440;28;20218;-69
2022/10/14 03:32:31;;;;;;;24.87;14.30;;;9.50;99.90;;;;;;5070296;28;20573;-68
2022/10/14 03:34:58;;;;;;;26.77;14.37;;;9.50;99.90;;;;;;5071308;28;20585;-70
2022/10/14 03:37:26;;;;;;;30.63;16.93;;;9.50;99.90;;;;;;5074198;28;20595;-66
2022/10/14 03:39:53;;;;;;;39.67;22.70;;;9.50;99.90;;;;;;5075597;28;20235;-67
2022/10/14 03:42:19;;;;;;;35.97;20.67;;;9.50;99.90;;;;;;5079608;28;20210;-68
2022/10/14 03:44:46;;;;;;;35.87;19.60;;;9.50;99.90;;;;;;5085608;28;20258;-68
2022/10/14 03:47:13;;;;;;;28.70;17.40;;;9.40;99.90;;;;;;5085142;28;20242;-67
2022/10/14 03:49:40;;;;;;;29.97;17.00;;;9.40;99.90;;;;;;5095850;28;20204;-67
2022/10/14 03:52:06;;;;;;;26.33;15.47;;;9.40;99.90;;;;;;5095565;28;20208;-69
2022/10/14 03:54:36;;;;;;;28.63;15.33;;;9.50;99.90;;;;;;5095526;28;20653;-69
2022/10/14 03:57:03;;;;;;;28.47;15.73;;;9.50;99.90;;;;;;5094187;28;20227;-67
2022/10/14 03:59:29;;;;;;;28.33;15.80;;;9.40;99.90;;;;;;5094985;28;20212;-67
2022/10/14 04:01:56;;;;;;;31.10;16.50;;;9.40;99.90;;;;;;5095689;28;20572;-68
2022/10/14 04:04:23;;;;;;;27.13;17.27;;;9.40;99.90;;;;;;5095340;28;20222;-68
2022/10/14 04:06:50;;;;;;;30.47;18.50;;;9.40;99.90;;;;;;5093437;28;20204;-68
2022/10/14 04:09:16;;;;;;;27.43;16.37;;;9.40;99.90;;;;;;5095504;28;20204;-68
2022/10/14 04:11:45;;;;;;;26.17;14.77;;;9.40;99.90;;;;;;5095315;28;20204;-68
2022/10/14 04:14:11;;;;;;;25.00;15.07;;;9.40;99.90;;;;;;5086018;28;20203;-68
2022/10/14 04:16:38;;;;;;;21.80;13.27;;;9.40;99.90;;;;;;5078193;28;20231;-68
2022/10/14 04:19:05;;;;;;;21.87;13.07;;;9.40;99.90;;;;;;5074565;28;20211;-67
2022/10/14 04:21:32;;;;;;;19.97;12.63;;;9.40;99.90;;;;;;5075169;28;20258;-69
2022/10/14 04:23:59;;;;;;;20.87;12.43;;;9.40;99.90;;;;;;5084614;28;20239;-67
2022/10/14 04:26:25;;;;;;;24.37;13.07;;;9.40;99.90;;;;;;5095300;28;20188;-68
2022/10/14 04:28:54;;;;;;;20.80;13.40;;;9.40;99.90;;;;;;5095257;28;20200;-68
2022/10/14 04:31:21;;;;;;;21.60;13.17;;;9.40;99.90;;;;;;5093217;28;20663;-68
2022/10/14 04:33:48;;;;;;;22.67;13.07;;;9.50;99.90;;;;;;5082262;28;20292;-69
2022/10/14 04:36:15;;;;;;;27.17;15.43;;;9.50;99.90;;;;;;5094633;28;20247;-70
2022/10/14 04:38:42;;;;;;;24.27;13.77;;;9.50;99.90;;;;;;5095156;28;20554;-70
2022/10/14 04:41:08;;;;;;;20.33;11.00;;;9.50;99.90;;;;;;5094335;28;20199;-68
2022/10/14 04:43:35;;;;;;;19.10;10.83;;;9.50;99.90;;;;;;5081693;28;20566;-69
2022/10/14 04:46:04;;;;;;;19.70;11.43;;;9.50;99.90;;;;;;5081959;28;20200;-68
2022/10/14 04:48:31;;;;;;;19.57;11.60;;;9.50;99.90;;;;;;5094962;28;20224;-69
2022/10/14 04:50:58;;;;;;;18.90;11.47;;;9.50;99.90;;;;;;5087579;28;20204;-69
2022/10/14 04:53:24;;;;;;;19.60;11.73;;;9.60;99.90;;;;;;5074264;28;20574;-68
2022/10/14 04:55:51;;;;;;;21.73;13.27;;;9.60;99.90;;;;;;5080856;28;20303;-69
2022/10/14 04:58:18;;;;;;;21.73;12.90;;;9.60;99.90;;;;;;5094198;28;20251;-68
2022/10/14 05:00:45;;;;;;;25.67;14.67;;;9.60;99.90;;;;;;5089313;28;20225;-69
2022/10/14 05:03:13;;;;;;;24.67;14.20;;;9.60;99.90;;;;;;5073741;28;20209;-67
2022/10/14 05:05:40;;;;;;;29.13;15.13;;;9.70;99.90;;;;;;5077541;28;20196;-69
2022/10/14 05:08:07;;;;;;;25.57;14.10;;;9.70;99.90;;;;;;5086515;28;20203;-69
2022/10/14 05:10:34;;;;;;;25.97;14.83;;;9.70;99.90;;;;;;5094076;28;20214;-68
2022/10/14 05:13:02;;;;;;;23.50;14.23;;;9.70;99.90;;;;;;5093899;28;20204;-67
2022/10/14 05:15:29;;;;;;;25.20;15.40;;;9.70;99.90;;;;;;5090944;28;20945;-68
2022/10/14 05:17:56;;;;;;;25.60;14.80;;;9.80;99.90;;;;;;5081261;28;20220;-70
2022/10/14 05:20:24;;;;;;;27.23;15.77;;;9.80;99.90;;;;;;5082918;28;20652;-68
2022/10/14 05:22:51;;;;;;;31.47;18.83;;;9.80;99.90;;;;;;5072894;28;20587;-66
2022/10/14 05:25:18;;;;;;;48.00;24.93;;;9.80;99.90;;;;;;5071997;28;20325;-69
2022/10/14 05:27:44;;;;;;;46.63;26.87;;;9.90;99.90;;;;;;5074422;28;20197;-66
2022/10/14 05:30:12;;;;;;;49.70;28.13;;;9.90;99.90;;;;;;5088191;28;20204;-69
2022/10/14 05:32:39;;;;;;;48.40;29.60;;;9.90;99.90;;;;;;5073099;28;20213;-69
2022/10/14 05:35:06;;;;;;;50.60;30.67;;;10.00;99.90;;;;;;5073468;28;20236;-70
2022/10/14 05:37:34;;;;;;;49.63;28.63;;;10.00;99.90;;;;;;5073762;28;20317;-72
2022/10/14 05:40:01;;;;;;;56.43;33.73;;;10.00;99.90;;;;;;5073550;28;20296;-72
2022/10/14 05:42:28;;;;;;;68.87;41.00;;;10.10;99.90;;;;;;5082233;28;20207;-68
2022/10/14 05:44:54;;;;;;;63.50;41.03;;;10.10;99.90;;;;;;5082027;28;20200;-69
2022/10/14 05:47:21;;;;;;;85.87;54.30;;;10.10;99.90;;;;;;5081974;28;20203;-69
2022/10/14 05:49:48;;;;;;;147.83;99.53;;;10.20;99.90;;;;;;5089217;28;20207;-67
2022/10/14 05:52:15;;;;;;;141.83;90.47;;;10.20;99.90;;;;;;5091346;28;20214;-69
2022/10/14 05:54:43;;;;;;;94.03;63.47;;;10.20;99.90;;;;;;5073413;28;20211;-70
2022/10/14 05:57:10;;;;;;;85.27;53.23;;;10.20;99.90;;;;;;5072465;28;20239;-70
2022/10/14 05:59:36;;;;;;;83.23;53.90;;;10.30;99.90;;;;;;5076090;28;20612;-70
2022/10/14 06:02:03;;;;;;;95.60;58.87;;;10.30;99.90;;;;;;5073963;28;20590;-70
2022/10/14 06:04:30;;;;;;;90.63;56.60;;;10.40;99.90;;;;;;5081738;28;20201;-70
2022/10/14 06:06:59;;;;;;;86.53;54.53;;;10.40;99.90;;;;;;5073331;28;20221;-72
2022/10/14 06:09:26;;;;;;;85.17;54.37;;;10.50;99.90;;;;;;5073463;28;20211;-70
2022/10/14 06:11:54;;;;;;;62.70;38.97;;;10.50;99.90;;;;;;5071839;28;20213;-70
2022/10/14 06:14:21;;;;;;;53.47;34.47;;;10.60;99.90;;;;;;5072825;28;20211;-68
2022/10/14 06:16:50;;;;;;;51.57;33.70;;;10.60;99.90;;;;;;5072111;28;20221;-68
2022/10/14 06:19:16;;;;;;;46.77;32.53;;;10.70;99.90;;;;;;5072102;28;20205;-70
2022/10/14 06:21:44;;;;;;;59.57;36.07;;;10.70;99.90;;;;;;5072459;28;20201;-69
2022/10/14 06:24:11;;;;;;;53.00;34.53;;;10.80;99.90;;;;;;5072242;28;20737;-70
2022/10/14 06:26:38;;;;;;;50.93;34.20;;;10.80;99.90;;;;;;5072987;28;20207;-69
2022/10/14 06:29:06;;;;;;;55.00;33.13;;;10.80;99.90;;;;;;5071828;28;20258;-69
2022/10/14 06:31:33;;;;;;;45.70;30.97;;;10.80;99.90;;;;;;5072316;28;20240;-69
2022/10/14 06:34:00;;;;;;;43.47;28.27;;;10.90;99.90;;;;;;5071752;28;20208;-68
2022/10/14 06:36:27;;;;;;;34.63;24.33;;;10.90;99.90;;;;;;5076988;28;20207;-70
2022/10/14 06:38:54;;;;;;;30.83;18.77;;;11.00;99.90;;;;;;5092778;28;20196;-70
2022/10/14 06:41:21;;;;;;;27.70;15.40;;;11.10;99.90;;;;;;5092771;28;20204;-69
2022/10/14 06:43:48;;;;;;;26.50;13.97;;;11.10;99.90;;;;;;5083738;28;20211;-70
2022/10/14 06:46:16;;;;;;;23.70;12.70;;;11.20;99.90;;;;;;5071659;28;20235;-69
2022/10/14 06:48:43;;;;;;;23.93;13.07;;;11.20;99.90;;;;;;5071118;28;20197;-70
2022/10/14 06:51:10;;;;;;;24.07;13.13;;;11.20;99.90;;;;;;5071772;28;20197;-71
2022/10/14 06:53:36;;;;;;;30.07;14.03;;;11.30;99.90;;;;;;5072020;28;20310;-69
2022/10/14 06:56:06;;;;;;;23.20;12.83;;;11.30;99.90;;;;;;5071969;28;20207;-70
2022/10/14 06:58:33;;;;;;;31.33;14.20;;;11.30;99.90;;;;;;5071144;28;20227;-69
2022/10/14 07:01:04;;;;;;;27.87;15.00;;;11.40;99.90;;;;;;5071452;28;20228;-70
2022/10/14 07:03:35;;;;;;;30.30;15.57;;;11.40;99.90;;;;;;5072314;28;20205;-70
2022/10/14 07:06:03;;;;;;;37.67;18.13;;;11.50;99.90;;;;;;5070674;28;20224;-69
2022/10/14 07:08:30;;;;;;;42.03;19.53;;;11.60;99.90;;;;;;5076799;28;20200;-69
2022/10/14 07:10:57;;;;;;;37.83;17.97;;;11.60;99.90;;;;;;5091633;28;20208;-70
2022/10/14 07:13:23;;;;;;;39.27;18.90;;;11.60;99.90;;;;;;5091963;28;20204;-69
2022/10/14 07:15:51;;;;;;;32.03;18.13;;;11.70;99.90;;;;;;5077987;28;20205;-70
2022/10/14 07:18:18;;;;;;;36.10;18.30;;;11.70;99.90;;;;;;5071694;28;20216;-69
2022/10/14 07:20:46;;;;;;;26.20;15.80;;;11.70;99.90;;;;;;5071388;28;20204;-69
2022/10/14 07:23:13;;;;;;;31.87;16.17;;;11.70;99.90;;;;;;5071581;28;20655;-69
2022/10/14 07:25:40;;;;;;;31.70;16.77;;;11.70;99.90;;;;;;5072463;28;20236;-69
2022/10/14 07:28:07;;;;;;;30.10;16.37;;;11.60;99.90;;;;;;5074649;28;20208;-69
2022/10/14 07:30:34;;;;;;;36.20;17.77;;;11.70;99.90;;;;;;5076324;28;20208;-70
2022/10/14 07:33:01;;;;;;;32.87;16.30;;;11.70;99.90;;;;;;5083627;28;20248;-69
2022/10/14 07:35:28;;;;;;;29.93;14.93;;;11.70;99.90;;;;;;5085755;28;20526;-69
2022/10/14 07:37:59;;;;;;;26.83;14.50;;;11.70;99.90;;;;;;5091335;28;20224;-70
2022/10/14 07:40:26;;;;;;;30.63;15.77;;;11.70;99.90;;;;;;5071357;28;20219;-69
2022/10/14 07:42:53;;;;;;;40.53;18.10;;;11.80;99.90;;;;;;5071803;28;20204;-68
2022/10/14 07:45:20;;;;;;;38.20;18.63;;;11.70;99.90;;;;;;5071611;28;20218;-70
2022/10/14 07:47:49;;;;;;;35.73;17.73;;;11.80;99.90;;;;;;5071902;28;20205;-71
2022/10/14 07:50:16;;;;;;;30.73;17.00;;;11.80;99.90;;;;;;5072551;28;20211;-69
2022/10/14 07:52:42;;;;;;;34.80;16.77;;;11.80;99.90;;;;;;5078293;28;20575;-70
2022/10/14 07:55:11;;;;;;;39.53;18.97;;;11.90;99.90;;;;;;5091507;28;20203;-68
2022/10/14 07:57:38;;;;;;;40.73;24.33;;;11.90;99.90;;;;;;5084149;28;20231;-71
2022/10/14 08:00:06;;;;;;;49.00;29.50;;;11.90;99.90;;;;;;5085504;28;20200;-70
2022/10/14 08:02:32;;;;;;;39.03;23.27;;;11.80;99.90;;;;;;5091816;28;20200;-69
2022/10/14 08:05:00;;;;;;;39.77;21.33;;;11.80;99.90;;;;;;5091944;28;20207;-68
2022/10/14 08:07:28;;;;;;;36.47;18.93;;;11.90;99.90;;;;;;5079778;28;20224;-69
2022/10/14 08:09:55;;;;;;;31.03;17.60;;;11.90;99.90;;;;;;5079658;28;20208;-71
2022/10/14 08:12:23;;;;;;;42.23;22.07;;;11.90;99.90;;;;;;5085421;28;20199;-69
2022/10/14 08:14:50;;;;;;;35.43;18.07;;;11.90;99.90;;;;;;5071330;28;20220;-69
2022/10/14 08:17:16;;;;;;;33.07;17.63;;;11.90;99.90;;;;;;5088400;28;20233;-69
2022/10/14 08:19:43;;;;;;;30.80;16.43;;;11.90;99.90;;;;;;5091284;28;20200;-71
2022/10/14 08:22:10;;;;;;;30.83;15.43;;;11.90;99.90;;;;;;5094046;28;20207;-69
2022/10/14 08:24:37;;;;;;;28.97;13.43;;;11.90;99.90;;;;;;5084812;28;20236;-71
2022/10/14 08:27:05;;;;;;;28.07;14.40;;;12.00;99.90;;;;;;5092804;28;20284;-71
2022/10/14 08:29:34;;;;;;;26.27;13.70;;;12.00;99.90;;;;;;5080927;28;20257;-70
2022/10/14 08:32:01;;;;;;;23.80;12.47;;;12.10;99.90;;;;;;5074574;28;20654;-68
2022/10/14 08:34:27;;;;;;;22.73;11.97;;;12.20;99.90;;;;;;5074839;28;20207;-69
2022/10/14 08:36:54;;;;;;;27.67;11.90;;;12.20;99.90;;;;;;5074723;28;20208;-72
2022/10/14 08:39:21;;;;;;;23.73;11.57;;;12.30;99.90;;;;;;5074224;28;20225;-69
2022/10/14 08:42:15;;;;;;;20.53;9.37;;;12.30;99.90;;;;;;5080471;28;20196;-72
2022/10/14 08:44:47;;;;;;;15.77;8.20;;;12.30;99.90;;;;;;5093848;28;20192;-68
2022/10/14 08:47:16;;;;;;;17.07;8.97;;;12.40;99.90;;;;;;5093563;28;20208;-70
2022/10/14 08:49:57;;;;;;;16.97;7.87;;;12.50;99.90;;;;;;5094207;28;20231;-69
2022/10/14 08:52:29;;;;;;;17.07;7.97;;;12.60;99.90;;;;;;5094615;28;20559;-70
2022/10/14 08:55:00;;;;;;;16.67;8.50;;;12.70;99.90;;;;;;5089661;28;20647;-69
2022/10/14 08:57:31;;;;;;;21.27;8.40;;;12.70;99.90;;;;;;5080628;28;20561;-69
2022/10/14 08:59:59;;;;;;;22.87;8.63;;;12.70;99.90;;;;;;5079714;28;20197;-69
2022/10/14 09:02:37;;;;;;;22.60;8.60;;;12.80;99.90;;;;;;5084619;28;20200;-69
2022/10/14 09:05:05;;;;;;;19.00;9.43;;;12.90;99.90;;;;;;5074477;28;20189;-70
2022/10/14 09:07:34;;;;;;;20.50;8.23;;;13.00;99.90;;;;;;5084369;28;20580;-69
2022/10/14 09:10:07;;;;;;;26.90;9.57;;;13.00;99.90;;;;;;5094357;28;20204;-71
2022/10/14 09:12:35;;;;;;;24.20;10.37;;;13.00;99.90;;;;;;5090515;28;20222;-69
2022/10/14 09:15:13;;;;;;;22.80;9.67;;;13.10;99.90;;;;;;5083094;28;20212;-69
2022/10/14 09:17:44;;;;;;;25.83;9.67;;;13.20;99.90;;;;;;5083772;28;20220;-68
2022/10/14 09:20:19;;;;;;;26.20;9.47;;;13.30;99.90;;;;;;5094218;28;20554;-68
2022/10/14 09:22:57;;;;;;;21.70;9.97;;;13.40;99.90;;;;;;5082190;28;20197;-70
2022/10/14 09:25:24;;;;;;;26.70;9.90;;;13.50;99.90;;;;;;5073708;28;20232;-69
2022/10/14 09:27:50;;;;;;;24.27;10.60;;;13.60;99.90;;;;;;5074936;28;20677;-69
2022/10/14 09:30:19;;;;;;;23.57;11.47;;;13.70;99.90;;;;;;5093773;28;20215;-70
2022/10/14 09:32:49;;;;;;;20.87;9.57;;;13.80;99.90;;;;;;5094616;28;20718;-71
2022/10/14 09:35:22;;;;;;;23.73;9.87;;;13.90;99.90;;;;;;5079699;28;20221;-70
2022/10/14 09:37:48;;;;;;;24.63;10.27;;;14.00;99.90;;;;;;5073303;28;20211;-69
2022/10/14 09:40:20;;;;;;;26.83;12.43;;;13.90;99.90;;;;;;5073963;28;20570;-70
2022/10/14 09:42:50;;;;;;;19.60;8.63;;;13.90;99.90;;;;;;5073055;28;20200;-71
2022/10/14 09:45:22;;;;;;;20.90;9.23;;;13.80;99.90;;;;;;5073476;28;20193;-69
2022/10/14 09:47:55;;;;;;;22.13;9.87;;;13.60;99.90;;;;;;5093351;28;20200;-71
2022/10/14 09:50:26;;;;;;;24.43;10.07;;;13.60;99.90;;;;;;5093441;28;20195;-71
2022/10/14 09:52:57;;;;;;;31.60;10.80;;;13.60;99.90;;;;;;5093711;28;20188;-70
2022/10/14 09:55:24;;;;;;;21.57;9.73;;;13.50;99.90;;;;;;5093500;28;20191;-69
2022/10/14 09:58:12;;;;;;;21.60;9.43;;;13.50;99.90;;;;;;5093660;28;20654;-71
2022/10/14 10:00:41;;;;;;;20.53;9.17;;;13.50;99.90;;;;;;5093980;28;20199;-69
2022/10/14 10:03:24;;;;;;;18.77;8.60;;;13.50;99.90;;;;;;5092814;28;20210;-69
2022/10/14 10:06:00;;;;;;;17.43;8.50;;;13.60;99.90;;;;;;5093698;28;20582;-69
2022/10/14 10:08:28;;;;;;;22.13;9.80;;;13.60;99.90;;;;;;5073567;28;20188;-70
2022/10/14 10:11:00;;;;;;;23.50;9.73;;;13.70;99.90;;;;;;5071360;28;20586;-69
2022/10/14 10:13:38;;;;;;;19.80;10.00;;;13.70;99.90;;;;;;5082144;28;20207;-69
2022/10/14 10:16:08;;;;;;;28.50;9.50;;;13.80;99.90;;;;;;5092984;28;20257;-70
2022/10/14 10:18:35;;;;;;;20.03;8.80;;;13.80;99.90;;;;;;5090998;28;20573;-69
2022/10/14 10:21:06;;;;;;;24.77;9.03;;;13.90;99.90;;;;;;5076291;28;20211;-72
2022/10/14 10:23:36;;;;;;;26.80;9.07;;;13.90;99.90;;;;;;5076977;28;20208;-73
2022/10/14 10:26:16;;;;;;;17.33;8.70;;;13.90;99.90;;;;;;5092458;28;20195;-69
2022/10/14 10:28:48;;;;;;;20.70;8.87;;;13.90;99.90;;;;;;5092171;28;20184;-68
2022/10/14 10:31:36;;;;;;;18.53;8.37;;;13.90;99.90;;;;;;5092459;28;20738;-69
2022/10/14 10:34:20;;;;;;;18.27;7.70;;;13.90;99.90;;;;;;5093293;28;20195;-69
2022/10/14 10:36:56;;;;;;;14.40;7.50;;;13.90;99.90;;;;;;5089407;28;20579;-70
2022/10/14 10:39:33;;;;;;;14.90;6.23;;;14.00;99.90;;;;;;5072315;28;20204;-70
2022/10/14 10:42:11;;;;;;;17.93;6.93;;;13.90;99.90;;;;;;5086980;28;20200;-71
2022/10/14 10:44:57;;;;;;;14.40;6.40;;;13.90;99.90;;;;;;5076810;28;20647;-69
2022/10/14 10:47:44;;;;;;;14.00;6.67;;;13.90;99.90;;;;;;5077551;28;20196;-69
2022/10/14 10:50:30;;;;;;;19.20;7.13;;;13.90;99.90;;;;;;5091373;28;20538;-70
2022/10/14 10:53:13;;;;;;;14.87;6.77;;;13.90;99.90;;;;;;5071427;28;20209;-68
2022/10/14 10:55:52;;;;;;;16.17;8.23;;;13.90;99.90;;;;;;5075477;28;20200;-69
2022/10/14 10:58:35;;;;;;;16.40;7.20;;;14.00;99.90;;;;;;5083333;28;20243;-69
2022/10/14 11:01:11;;;;;;;15.13;7.30;;;14.00;99.90;;;;;;5080437;28;20564;-68
2022/10/14 11:04:05;;;;;;;17.57;7.57;;;14.00;99.90;;;;;;5085805;28;20188;-69
2022/10/14 11:12:22;;;;;;;18.50;6.60;;;14.10;99.90;;;;;;5086860;28;20240;-72
2022/10/14 11:15:10;;;;;;;16.50;7.43;;;14.20;99.90;;;;;;5071687;28;20292;-69
2022/10/14 11:17:45;;;;;;;14.07;7.20;;;14.20;99.90;;;;;;5074030;28;20200;-70
2022/10/14 11:20:22;;;;;;;14.17;6.80;;;14.20;99.90;;;;;;5078250;28;20208;-69
2022/10/14 11:23:07;;;;;;;15.03;7.10;;;14.20;99.90;;;;;;5086040;28;20192;-70
2022/10/14 11:25:48;;;;;;;15.97;8.17;;;14.30;99.90;;;;;;5087279;28;20225;-70
2022/10/14 11:28:25;;;;;;;17.53;7.33;;;14.40;99.90;;;;;;5083637;28;20211;-68
2022/10/14 11:30:57;;;;;;;18.23;7.20;;;14.40;99.90;;;;;;5092245;28;20192;-70
2022/10/14 11:33:38;;;;;;;14.27;6.80;;;14.50;99.90;;;;;;5081247;28;20595;-69
2022/10/14 11:36:19;;;;;;;19.83;8.23;;;14.60;99.90;;;;;;5071962;28;20189;-68
2022/10/14 11:39:05;;;;;;;18.53;8.27;;;14.60;99.90;;;;;;5072016;28;20679;-71
2022/10/14 11:41:44;;;;;;;18.87;9.40;;;14.60;99.90;;;;;;5071785;28;20194;-71
2022/10/14 11:44:19;;;;;;;16.17;9.03;;;14.50;99.90;;;;;;5071982;28;20185;-70
2022/10/14 11:46:53;;;;;;;18.80;8.93;;;14.50;99.90;;;;;;5071854;28;20659;-73
2022/10/14 11:49:25;;;;;;;17.80;8.50;;;14.50;99.90;;;;;;5071470;28;20211;-71
2022/10/14 11:51:58;;;;;;;14.80;7.80;;;14.50;99.90;;;;;;5071768;28;20190;-70
2022/10/14 11:54:30;;;;;;;20.53;8.33;;;14.60;99.90;;;;;;5072142;28;20207;-69
2022/10/14 11:57:01;;;;;;;16.67;7.47;;;14.60;99.90;;;;;;5073845;28;20189;-70
2022/10/14 11:59:54;;;;;;;14.47;8.37;;;14.50;99.90;;;;;;5075532;28;20229;-69
2022/10/14 12:02:29;;;;;;;16.30;8.50;;;14.50;99.90;;;;;;5075243;28;20212;-69
2022/10/14 12:05:00;;;;;;;17.73;7.63;;;14.50;99.90;;;;;;5075465;28;20627;-70
2022/10/14 12:07:33;;;;;;;15.50;6.93;;;14.40;99.90;;;;;;5075588;28;20189;-69
2022/10/14 12:10:03;;;;;;;13.30;6.83;;;14.30;99.90;;;;;;5075385;28;20538;-70
2022/10/14 12:12:32;;;;;;;11.53;7.07;;;14.40;99.90;;;;;;5075152;28;20209;-70
2022/10/14 12:15:04;;;;;;;13.63;7.23;;;14.40;99.90;;;;;;5074951;28;20372;-69
2022/10/14 12:17:35;;;;;;;15.17;7.67;;;14.40;99.90;;;;;;5075189;28;20198;-72
2022/10/14 12:20:15;;;;;;;13.93;6.90;;;14.50;99.90;;;;;;5075068;28;20213;-70
2022/10/14 12:22:47;;;;;;;14.43;6.70;;;14.50;99.90;;;;;;5075149;28;20216;-68
2022/10/14 12:25:17;;;;;;;14.27;7.10;;;14.60;99.90;;;;;;5074488;28;20236;-69
2022/10/14 12:27:44;;;;;;;14.33;7.13;;;14.60;99.90;;;;;;5074910;28;20301;-68
2022/10/14 12:30:31;;;;;;;15.43;7.97;;;14.60;99.90;;;;;;5074529;28;20216;-70
2022/10/14 12:33:02;;;;;;;10.53;5.60;;;14.70;99.90;;;;;;5074599;28;20224;-69
2022/10/14 12:35:51;;;;;;;12.90;5.50;;;14.60;99.90;;;;;;5075693;28;20555;-72
2022/10/14 12:38:21;;;;;;;12.00;5.83;;;14.60;99.90;;;;;;5074465;28;20189;-71
2022/10/14 12:40:48;;;;;;;12.83;6.87;;;14.70;99.90;;;;;;5074599;28;20575;-69
2022/10/14 12:43:23;;;;;;;16.07;6.93;;;14.70;99.90;;;;;;5074379;28;20618;-68
2022/10/14 12:46:10;;;;;;;15.23;7.17;;;14.60;99.90;;;;;;5074577;28;20654;-70
2022/10/14 12:48:45;;;;;;;12.67;6.03;;;14.60;99.90;;;;;;5074149;28;20201;-70
2022/10/14 12:51:15;;;;;;;22.93;7.20;;;14.70;99.90;;;;;;5074545;28;20531;-70
2022/10/14 12:53:52;;;;;;;12.47;6.47;;;14.70;99.90;;;;;;5074609;28;20520;-71
2022/10/14 12:56:35;;;;;;;13.97;6.30;;;14.60;99.90;;;;;;5074398;28;20195;-69